Time;durP1;ratioP1;P1;durP2;ratioP2;P2;SDS_P1;SDS_P2;PMS_P1;PMS_P2;Temp;Humidity;BMP_temperature;BMP_pressure;BME280_temperature;BME280_humidity;BME280_pressure;Samples;Min_cycle;Max_cycle;Signal;HPM_P1;HPM_P2
2021/10/22 00:01:31;;;;;;;;;;;;;;;0.17;69.97;95375.19;5002507;28;20283;-69
2021/10/22 00:03:57;;;;;;;;;;;;;;;0.07;70.52;95381.09;5001615;28;20393;-68
2021/10/22 00:06:22;;;;;;;;;;;;;;;0.03;70.29;95384.91;5004163;28;19917;-65
2021/10/22 00:08:47;;;;;;;;;;;;;;;-0.10;71.15;95392.06;5005203;28;19921;-69
2021/10/22 00:11:13;;;;;;;;;;;;;;;0.33;68.76;95401.84;5004929;28;19968;-68
2021/10/22 00:13:38;;;;;;;;;;;;;;;0.26;69.78;95402.41;5002187;28;19945;-66
2021/10/22 00:16:04;;;;;;;;;;;;;;;0.47;67.75;95389.44;4996550;28;20390;-67
2021/10/22 00:18:29;;;;;;;;;;;;;;;0.65;68.06;95388.97;4998961;28;19979;-68
2021/10/22 00:20:54;;;;;;;;;;;;;;;0.28;68.03;95385.63;4989173;28;19925;-66
2021/10/22 00:23:20;;;;;;;;;;;;;;;0.76;67.59;95388.94;4990203;28;19987;-68
2021/10/22 00:25:45;;;;;;;;;;;;;;;-0.15;69.87;95396.78;4983945;28;19922;-67
2021/10/22 00:28:10;;;;;;;;;;;;;;;-0.60;70.54;95390.50;4991550;28;19929;-68
2021/10/22 00:30:35;;;;;;;;;;;;;;;-0.34;71.11;95395.56;4987461;28;20009;-67
2021/10/22 00:33:01;;;;;;;;;;;;;;;0.10;69.82;95390.50;4989500;28;19925;-66
2021/10/22 00:35:26;;;;;;;;;;;;;;;0.21;69.37;95394.94;4985063;28;20216;-67
2021/10/22 00:37:51;;;;;;;;;;;;;;;0.37;68.68;95397.19;4984786;28;19949;-67
2021/10/22 00:40:16;;;;;;;;;;;;;;;-0.19;69.41;95397.00;4984144;28;19922;-67
2021/10/22 00:42:42;;;;;;;;;;;;;;;-0.58;70.95;95406.91;4986723;28;19917;-68
2021/10/22 00:45:07;;;;;;;;;;;;;;;-0.57;71.23;95392.91;4986898;28;19939;-66
2021/10/22 00:47:32;;;;;;;;;;;;;;;-0.64;71.32;95400.34;4991578;28;20240;-68
2021/10/22 00:49:58;;;;;;;;;;;;;;;-0.60;71.44;95393.94;4997066;28;19988;-69
2021/10/22 00:52:24;;;;;;;;;;;;;;;-0.44;71.02;95408.47;4989717;28;20375;-66
2021/10/22 00:54:49;;;;;;;;;;;;;;;-0.25;70.12;95402.72;4995180;28;20020;-66
2021/10/22 00:57:15;;;;;;;;;;;;;;;-0.53;71.58;95406.56;4996706;28;19952;-66
2021/10/22 00:59:40;;;;;;;;;;;;;;;-0.42;71.61;95406.59;4982516;28;19945;-66
2021/10/22 01:02:05;;;;;;;;;;;;;;;-0.49;70.82;95408.00;4984217;28;19925;-68
2021/10/22 01:04:31;;;;;;;;;;;;;;;-0.82;72.01;95405.13;4986934;28;20366;-69
2021/10/22 01:06:56;;;;;;;;;;;;;;;-1.24;73.75;95421.16;4999799;28;19917;-66
2021/10/22 01:09:22;;;;;;;;;;;;;;;-0.85;72.68;95411.44;4988401;28;19934;-68
2021/10/22 01:11:48;;;;;;;;;;;;;;;-0.71;72.60;95417.44;4998615;28;20408;-66
2021/10/22 01:14:13;;;;;;;;;;;;;;;-0.87;72.91;95420.34;5002558;28;19913;-64
2021/10/22 01:16:39;;;;;;;;;;;;;;;-0.99;73.37;95412.41;5002264;28;20402;-65
2021/10/22 01:19:04;;;;;;;;;;;;;;;-0.75;71.91;95405.56;5000098;28;19924;-65
2021/10/22 01:21:29;;;;;;;;;;;;;;;-0.97;72.69;95401.84;5002731;28;20000;-64
2021/10/22 01:23:54;;;;;;;;;;;;;;;-0.85;72.47;95389.66;5002075;28;20044;-66
2021/10/22 01:26:20;;;;;;;;;;;;;;;-0.51;71.31;95386.38;5002745;28;20359;-66
2021/10/22 01:28:45;;;;;;;;;;;;;;;-0.66;71.71;95393.56;5002110;28;19929;-66
2021/10/22 01:31:11;;;;;;;;;;;;;;;-0.84;71.53;95404.44;5002167;28;19921;-65
2021/10/22 01:33:37;;;;;;;;;;;;;;;-0.48;71.22;95394.81;5002722;28;19957;-65
2021/10/22 01:36:03;;;;;;;;;;;;;;;-0.64;71.10;95391.69;5002349;28;20390;-68
2021/10/22 01:38:30;;;;;;;;;;;;;;;-0.65;71.35;95384.78;5002562;28;19917;-66
2021/10/22 01:40:55;;;;;;;;;;;;;;;-0.58;71.65;95389.44;5002364;28;19918;-65
2021/10/22 01:43:21;;;;;;;;;;;;;;;-0.33;69.83;95384.16;5002146;28;20394;-66
2021/10/22 01:45:47;;;;;;;;;;;;;;;-0.68;71.12;95388.44;5002399;28;19976;-68
2021/10/22 01:48:12;;;;;;;;;;;;;;;-0.64;72.25;95391.69;5001988;28;19921;-66
2021/10/22 01:50:38;;;;;;;;;;;;;;;-0.57;71.48;95388.47;5002183;28;20203;-66
2021/10/22 01:53:03;;;;;;;;;;;;;;;-0.85;72.35;95395.75;5002301;28;20390;-67
2021/10/22 01:55:29;;;;;;;;;;;;;;;-0.74;72.32;95381.88;5001351;28;19922;-67
2021/10/22 01:57:54;;;;;;;;;;;;;;;-0.36;71.00;95387.00;5001927;28;20298;-67
2021/10/22 02:00:19;;;;;;;;;;;;;;;-0.63;71.50;95393.34;5001679;28;19925;-65
2021/10/22 02:02:44;;;;;;;;;;;;;;;-0.94;72.93;95391.19;5002012;28;19917;-65
2021/10/22 02:05:10;;;;;;;;;;;;;;;-0.85;72.71;95390.50;5001355;28;19924;-67
2021/10/22 02:07:35;;;;;;;;;;;;;;;-0.89;73.50;95388.22;5001686;28;20350;-65
2021/10/22 02:10:01;;;;;;;;;;;;;;;-0.91;72.42;95388.38;5001595;28;19933;-66
2021/10/22 02:12:26;;;;;;;;;;;;;;;-0.74;71.71;95392.34;4996784;28;19922;-67
2021/10/22 02:14:51;;;;;;;;;;;;;;;-1.24;72.69;95406.34;4993262;28;19933;-66
2021/10/22 02:17:16;;;;;;;;;;;;;;;-1.07;72.94;95404.28;5001518;28;19921;-68
2021/10/22 02:19:42;;;;;;;;;;;;;;;-1.22;74.20;95399.22;5001405;28;19924;-67
2021/10/22 02:22:07;;;;;;;;;;;;;;;-1.32;73.18;95403.44;5001810;28;20012;-68
2021/10/22 02:24:32;;;;;;;;;;;;;;;-0.75;72.88;95390.69;5001452;28;19987;-66
2021/10/22 02:26:57;;;;;;;;;;;;;;;-0.36;71.70;95392.22;5001498;28;19921;-66
2021/10/22 02:29:23;;;;;;;;;;;;;;;-0.76;72.30;95394.25;5001128;28;20434;-65
2021/10/22 02:31:48;;;;;;;;;;;;;;;-0.13;69.25;95384.44;4999532;28;19928;-67
2021/10/22 02:34:13;;;;;;;;;;;;;;;0.46;67.63;95379.91;5001673;28;19922;-67
2021/10/22 02:36:39;;;;;;;;;;;;;;;0.34;69.00;95377.31;5000734;28;20500;-66
2021/10/22 02:39:04;;;;;;;;;;;;;;;0.28;68.42;95383.00;5000982;28;19917;-66
2021/10/22 02:41:29;;;;;;;;;;;;;;;0.58;67.22;95378.13;5001949;28;20147;-69
2021/10/22 02:43:54;;;;;;;;;;;;;;;0.27;66.87;95373.50;4993996;28;20353;-67
2021/10/22 02:46:20;;;;;;;;;;;;;;;0.69;66.90;95379.91;5001013;28;20028;-66
2021/10/22 02:48:45;;;;;;;;;;;;;;;0.50;66.53;95377.88;5000618;28;20536;-67
2021/10/22 02:51:10;;;;;;;;;;;;;;;1.00;65.73;95366.09;5000514;28;19924;-67
2021/10/22 02:53:36;;;;;;;;;;;;;;;0.18;67.53;95382.06;5001181;28;19929;-66
2021/10/22 02:56:01;;;;;;;;;;;;;;;-0.37;70.18;95374.88;5000667;28;20737;-67
2021/10/22 02:58:26;;;;;;;;;;;;;;;0.56;67.73;95380.88;5001057;28;20290;-68
2021/10/22 03:00:52;;;;;;;;;;;;;;;1.02;64.85;95391.25;5000655;28;19917;-67
2021/10/22 03:03:17;;;;;;;;;;;;;;;0.38;66.74;95384.94;5000260;28;20305;-69
2021/10/22 03:05:42;;;;;;;;;;;;;;;-0.23;68.91;95389.53;5001241;28;19980;-69
2021/10/22 03:08:08;;;;;;;;;;;;;;;0.42;67.59;95376.72;5000722;28;19937;-67
2021/10/22 03:10:33;;;;;;;;;;;;;;;0.40;66.96;95396.09;5000357;28;19917;-68
2021/10/22 03:12:58;;;;;;;;;;;;;;;0.56;66.68;95387.88;5000509;28;19918;-68
2021/10/22 03:15:24;;;;;;;;;;;;;;;0.59;66.50;95383.22;4998451;28;20291;-66
2021/10/22 03:17:49;;;;;;;;;;;;;;;0.69;65.52;95383.34;5000895;28;19928;-67
2021/10/22 03:20:15;;;;;;;;;;;;;;;0.81;65.19;95383.31;5000082;28;20020;-65
2021/10/22 03:22:41;;;;;;;;;;;;;;;1.04;63.74;95378.84;5000722;28;19918;-66
2021/10/22 03:25:06;;;;;;;;;;;;;;;1.45;64.16;95381.69;4999349;28;20367;-68
2021/10/22 03:27:32;;;;;;;;;;;;;;;1.00;63.27;95387.94;4999989;28;19928;-66
2021/10/22 03:29:58;;;;;;;;;;;;;;;0.48;64.05;95391.09;5000779;28;19924;-69
2021/10/22 03:32:23;;;;;;;;;;;;;;;1.20;63.76;95380.22;5000635;28;19917;-70
2021/10/22 03:34:48;;;;;;;;;;;;;;;1.58;62.33;95381.53;5000187;28;19967;-68
2021/10/22 03:37:13;;;;;;;;;;;;;;;1.57;62.03;95377.22;5000418;28;20294;-68
2021/10/22 03:39:39;;;;;;;;;;;;;;;1.34;62.83;95385.19;4998877;28;20037;-66
2021/10/22 03:42:04;;;;;;;;;;;;;;;0.96;63.82;95387.31;5006625;28;20096;-68
2021/10/22 03:44:30;;;;;;;;;;;;;;;1.23;61.42;95391.28;5006788;28;20094;-65
2021/10/22 03:46:55;;;;;;;;;;;;;;;1.46;63.15;95392.97;5006926;28;19920;-66
2021/10/22 03:49:20;;;;;;;;;;;;;;;1.18;62.67;95395.25;5006294;28;19925;-67
2021/10/22 03:51:46;;;;;;;;;;;;;;;0.66;65.05;95393.22;5006707;28;20024;-65
2021/10/22 03:54:11;;;;;;;;;;;;;;;1.04;62.39;95399.84;5006320;28;19960;-67
2021/10/22 03:56:36;;;;;;;;;;;;;;;0.88;63.68;95396.78;5006086;28;19925;-68
2021/10/22 03:59:01;;;;;;;;;;;;;;;1.27;62.09;95385.81;5006197;28;19961;-64
2021/10/22 04:01:27;;;;;;;;;;;;;;;0.50;63.59;95397.06;4999182;28;20389;-66
2021/10/22 04:03:52;;;;;;;;;;;;;;;0.72;64.63;95401.44;5006300;28;19923;-65
2021/10/22 04:06:18;;;;;;;;;;;;;;;0.85;63.15;95403.06;5005537;28;20321;-65
2021/10/22 04:08:43;;;;;;;;;;;;;;;1.02;62.17;95403.53;5006329;28;19925;-65
2021/10/22 04:11:09;;;;;;;;;;;;;;;1.06;62.45;95402.34;5006112;28;19922;-65
2021/10/22 04:13:34;;;;;;;;;;;;;;;1.00;64.17;95401.03;5006837;28;20251;-66
2021/10/22 04:15:59;;;;;;;;;;;;;;;0.94;62.05;95393.66;5006114;28;19925;-66
2021/10/22 04:18:26;;;;;;;;;;;;;;;0.26;64.26;95400.66;5006384;28;20255;-64
2021/10/22 04:20:52;;;;;;;;;;;;;;;0.95;62.30;95395.31;5006073;28;20020;-67
2021/10/22 04:23:17;;;;;;;;;;;;;;;0.21;65.62;95401.00;5006097;28;20000;-63
2021/10/22 04:25:42;;;;;;;;;;;;;;;0.83;63.13;95399.75;5006855;28;19921;-65
2021/10/22 04:28:08;;;;;;;;;;;;;;;0.57;64.34;95395.63;5005982;28;20408;-65
2021/10/22 04:30:35;;;;;;;;;;;;;;;0.74;62.91;95398.69;5006093;28;20559;-66
2021/10/22 04:33:00;;;;;;;;;;;;;;;0.27;64.33;95404.09;5006163;28;19987;-64
2021/10/22 04:35:25;;;;;;;;;;;;;;;0.15;65.11;95398.88;5005932;28;19941;-65
2021/10/22 04:40:32;;;;;;;;;;;;;;;-0.00;65.78;95400.03;5006597;28;19933;-67
2021/10/22 04:43:07;;;;;;;;;;;;;;;-0.26;65.61;95397.59;5006780;28;19929;-66
2021/10/22 04:45:33;;;;;;;;;;;;;;;-0.23;65.97;95394.75;5006599;28;20214;-64
2021/10/22 04:47:58;;;;;;;;;;;;;;;-0.93;67.59;95399.84;5006133;28;20135;-66
2021/10/22 04:50:24;;;;;;;;;;;;;;;-0.83;67.91;95387.78;5007037;28;20382;-67
2021/10/22 04:52:53;;;;;;;;;;;;;;;-1.30;69.25;95404.16;5001763;28;20617;-66
2021/10/22 04:55:19;;;;;;;;;;;;;;;-1.25;70.01;95399.41;5002669;28;20476;-66
2021/10/22 04:57:44;;;;;;;;;;;;;;;-1.62;69.83;95408.06;5003428;28;19966;-66
2021/10/22 05:00:09;;;;;;;;;;;;;;;-1.58;70.49;95393.03;5003388;28;20226;-66
2021/10/22 05:02:35;;;;;;;;;;;;;;;-1.27;69.46;95395.25;5003303;28;19917;-67
2021/10/22 05:05:00;;;;;;;;;;;;;;;-1.01;69.29;95395.16;5003012;28;19995;-65
2021/10/22 05:07:25;;;;;;;;;;;;;;;-0.75;68.42;95395.09;5002657;28;19921;-63
2021/10/22 05:09:51;;;;;;;;;;;;;;;-1.02;67.74;95403.97;5000721;28;19913;-63
2021/10/22 05:12:16;;;;;;;;;;;;;;;-0.79;67.17;95397.06;4998999;28;19937;-66
2021/10/22 05:14:41;;;;;;;;;;;;;;;-0.98;67.72;95413.25;5002570;28;19953;-65
2021/10/22 05:17:06;;;;;;;;;;;;;;;-1.01;67.36;95396.00;5001809;28;20005;-66
2021/10/22 05:19:32;;;;;;;;;;;;;;;-0.74;66.79;95409.81;5002158;28;20009;-66
2021/10/22 05:21:57;;;;;;;;;;;;;;;-0.75;67.01;95400.31;5001304;28;19984;-65
2021/10/22 05:24:23;;;;;;;;;;;;;;;-0.88;67.28;95408.22;5002342;28;20017;-64
2021/10/22 05:26:48;;;;;;;;;;;;;;;-1.19;67.18;95418.22;5002451;28;19981;-66
2021/10/22 05:29:13;;;;;;;;;;;;;;;-0.85;66.59;95402.75;5002078;28;20008;-64
2021/10/22 05:31:38;;;;;;;;;;;;;;;-0.38;65.23;95407.19;5001940;28;19996;-64
2021/10/22 05:34:04;;;;;;;;;;;;;;;-0.52;64.62;95393.38;5002355;28;19973;-65
2021/10/22 05:36:29;;;;;;;;;;;;;;;-0.46;65.69;95395.53;5002194;28;20064;-67
2021/10/22 05:38:54;;;;;;;;;;;;;;;-0.81;65.93;95401.59;5002516;28;20464;-65
2021/10/22 05:41:19;;;;;;;;;;;;;;;-0.79;66.23;95404.06;5002371;28;20111;-67
2021/10/22 05:43:45;;;;;;;;;;;;;;;-1.38;67.73;95396.88;5001931;28;20283;-67
2021/10/22 05:46:11;;;;;;;;;;;;;;;-1.49;68.01;95410.66;5001501;28;20020;-65
2021/10/22 05:48:36;;;;;;;;;;;;;;;-1.19;67.81;95413.00;5002023;28;19937;-65
2021/10/22 05:51:02;;;;;;;;;;;;;;;-0.80;65.65;95408.50;5001445;28;19917;-66
2021/10/22 05:53:27;;;;;;;;;;;;;;;-0.75;65.12;95413.38;5001551;28;20248;-65
2021/10/22 05:55:52;;;;;;;;;;;;;;;-0.66;64.44;95410.09;5001450;28;19929;-66
2021/10/22 05:58:18;;;;;;;;;;;;;;;-1.09;64.86;95414.84;5002046;28;19961;-66
2021/10/22 06:00:44;;;;;;;;;;;;;;;-0.52;64.45;95413.47;5001454;28;20253;-65
2021/10/22 06:03:09;;;;;;;;;;;;;;;-0.47;63.23;95420.00;5001239;28;19995;-64
2021/10/22 06:05:36;;;;;;;;;;;;;;;-0.68;63.45;95429.47;5001654;28;19913;-66
2021/10/22 06:08:01;;;;;;;;;;;;;;;-0.32;63.30;95427.69;5001458;28;20016;-63
2021/10/22 06:10:27;;;;;;;;;;;;;;;-0.43;62.90;95431.09;5001214;28;20012;-66
2021/10/22 06:12:53;;;;;;;;;;;;;;;-0.47;63.10;95424.44;5000915;28;20370;-64
2021/10/22 06:15:19;;;;;;;;;;;;;;;0.04;61.43;95423.22;5000684;28;20396;-67
2021/10/22 06:17:44;;;;;;;;;;;;;;;0.14;60.28;95428.59;5001444;28;19917;-63
2021/10/22 06:20:13;;;;;;;;;;;;;;;-0.25;61.47;95433.28;5000969;28;19980;-64
2021/10/22 06:25:22;;;;;;;;;;;;;;;-0.87;63.41;95443.88;4993022;28;20041;-67
2021/10/22 06:27:50;;;;;;;;;;;;;;;-0.35;62.04;95439.22;5000435;28;20540;-65
2021/10/22 06:30:16;;;;;;;;;;;;;;;-0.75;63.43;95439.53;5001426;28;19929;-65
2021/10/22 06:32:41;;;;;;;;;;;;;;;-0.72;63.41;95447.97;5000901;28;19921;-67
2021/10/22 06:35:06;;;;;;;;;;;;;;;-0.53;61.48;95449.25;5000813;28;20374;-65
2021/10/22 06:37:32;;;;;;;;;;;;;;;-0.48;63.25;95454.97;4995335;28;19922;-68
2021/10/22 06:39:57;;;;;;;;;;;;;;;-0.36;61.83;95452.41;5000296;28;19927;-65
2021/10/22 06:42:22;;;;;;;;;;;;;;;-0.09;61.69;95459.16;4999244;28;20540;-66
2021/10/22 06:44:48;;;;;;;;;;;;;;;-0.03;61.63;95458.66;4990482;28;20024;-68
2021/10/22 06:47:13;;;;;;;;;;;;;;;-0.31;62.72;95453.72;5000835;28;20040;-66
2021/10/22 06:49:39;;;;;;;;;;;;;;;-0.51;61.88;95454.38;4996540;28;20023;-67
2021/10/22 06:52:05;;;;;;;;;;;;;;;-0.14;61.05;95450.81;4998173;28;20520;-68
2021/10/22 06:54:30;;;;;;;;;;;;;;;-0.44;62.47;95460.81;4995516;28;20318;-65
2021/10/22 06:56:55;;;;;;;;;;;;;;;-0.17;61.16;95459.69;5000235;28;20354;-67
2021/10/22 06:59:21;;;;;;;;;;;;;;;-0.53;62.51;95464.09;4989826;28;19926;-66
2021/10/22 07:01:46;;;;;;;;;;;;;;;-0.74;63.24;95455.09;4997097;28;19917;-65
2021/10/22 07:04:12;;;;;;;;;;;;;;;-0.62;61.92;95460.38;4994321;28;20000;-67
2021/10/22 07:09:21;;;;;;;;;;;;;;;-0.01;60.00;95450.69;4999994;28;20150;-65
2021/10/22 07:11:46;;;;;;;;;;;;;;;-0.05;60.23;95458.81;4998454;28;20394;-65
2021/10/22 07:14:12;;;;;;;;;;;;;;;-0.17;61.73;95441.38;4997782;28;19980;-63
2021/10/22 07:16:38;;;;;;;;;;;;;;;-0.31;62.01;95439.81;4992324;28;20330;-64
2021/10/22 07:19:04;;;;;;;;;;;;;;;-0.67;64.83;95441.56;4997318;28;19925;-67
2021/10/22 07:21:29;;;;;;;;;;;;;;;-0.59;63.09;95447.09;4995815;28;19933;-66
2021/10/22 07:23:56;;;;;;;;;;;;;;;-0.19;61.34;95436.25;4994015;28;20362;-64
2021/10/22 07:26:22;;;;;;;;;;;;;;;-0.57;62.67;95434.75;4991285;28;20552;-65
2021/10/22 07:28:48;;;;;;;;;;;;;;;-0.64;62.36;95428.28;4999119;28;19930;-65
2021/10/22 07:31:13;;;;;;;;;;;;;;;-2.04;67.45;95437.03;4997670;28;19921;-66
2021/10/22 07:33:39;;;;;;;;;;;;;;;-0.83;64.44;95448.78;4998432;28;19917;-68
2021/10/22 07:36:06;;;;;;;;;;;;;;;-0.90;63.40;95433.63;4999552;28;19926;-66
2021/10/22 07:38:31;;;;;;;;;;;;;;;-0.37;62.28;95432.44;5000322;28;19924;-75
2021/10/22 07:40:57;;;;;;;;;;;;;;;-0.56;63.61;95425.94;4982741;28;20290;-75
2021/10/22 07:43:22;;;;;;;;;;;;;;;-0.66;63.46;95433.63;5000145;28;19917;-76
2021/10/22 07:45:47;;;;;;;;;;;;;;;-0.77;62.93;95451.88;5000520;28;19925;-75
2021/10/22 07:48:12;;;;;;;;;;;;;;;-1.12;63.56;95446.41;4998854;28;19949;-76
2021/10/22 07:50:38;;;;;;;;;;;;;;;-0.47;62.92;95442.75;4999484;28;20139;-75
2021/10/22 07:53:03;;;;;;;;;;;;;;;-0.83;63.02;95450.53;5000875;28;20150;-75
2021/10/22 07:55:28;;;;;;;;;;;;;;;-0.77;63.66;95452.72;5000313;28;19922;-76
2021/10/22 07:57:53;;;;;;;;;;;;;;;-1.27;65.36;95456.19;5002310;28;20326;-76
2021/10/22 08:00:19;;;;;;;;;;;;;;;-0.60;63.75;95453.25;5002183;28;20418;-75
2021/10/22 08:02:45;;;;;;;;;;;;;;;-1.06;65.46;95463.44;5002453;28;19993;-74
2021/10/22 08:05:10;;;;;;;;;;;;;;;-0.38;63.80;95455.13;5001939;28;20632;-74
2021/10/22 08:07:38;;;;;;;;;;;;;;;-0.41;63.70;95459.78;5002227;28;20233;-74
2021/10/22 08:10:03;;;;;;;;;;;;;;;-0.07;62.35;95467.69;4984662;28;19974;-75
2021/10/22 08:12:29;;;;;;;;;;;;;;;-0.31;62.94;95455.50;4996977;28;20465;-75
2021/10/22 08:14:54;;;;;;;;;;;;;;;-0.33;63.58;95466.06;5000859;28;20405;-75
2021/10/22 08:17:20;;;;;;;;;;;;;;;-0.26;63.57;95469.09;5000171;28;19925;-75
2021/10/22 08:19:51;;;;;;;;;;;;;;;-0.76;64.48;95475.28;5000453;28;20005;-75
2021/10/22 08:22:30;;;;;;;;;;;;;;;-0.74;66.26;95468.16;5000536;28;20009;-75
2021/10/22 08:25:03;;;;;;;;;;;;;;;-1.16;65.34;95473.72;5000553;28;19997;-75
2021/10/22 08:27:32;;;;;;;;;;;;;;;-0.75;64.33;95476.16;5001942;28;20297;-75
2021/10/22 08:29:57;;;;;;;;;;;;;;;-0.59;64.37;95486.31;5004372;28;19917;-75
2021/10/22 08:32:23;;;;;;;;;;;;;;;-0.75;64.13;95478.75;5004213;28;20393;-75
2021/10/22 08:34:48;;;;;;;;;;;;;;;-1.04;65.51;95479.84;5004041;28;20000;-76
2021/10/22 08:37:13;;;;;;;;;;;;;;;-1.10;65.31;95481.13;4998678;28;20120;-78
2021/10/22 08:39:44;;;;;;;;;;;;;;;-0.58;63.60;95509.75;4990301;28;20590;-76
2021/10/22 08:42:10;;;;;;;;;;;;;;;-0.86;64.33;95510.88;5004257;28;19917;-77
2021/10/22 08:44:36;;;;;;;;;;;;;;;-0.94;64.36;95490.53;4994890;28;19990;-75
2021/10/22 08:47:01;;;;;;;;;;;;;;;-1.11;66.20;95489.88;4987651;28;20364;-75
2021/10/22 08:49:26;;;;;;;;;;;;;;;-0.66;65.34;95487.69;5003629;28;19928;-76
2021/10/22 08:51:56;;;;;;;;;;;;;;;-0.90;64.97;95483.28;4999942;28;20012;-75
2021/10/22 08:54:21;;;;;;;;;;;;;;;-0.02;63.83;95486.53;5003707;28;20017;-76
2021/10/22 08:56:47;;;;;;;;;;;;;;;-0.11;62.37;95492.44;5003566;28;20183;-75
2021/10/22 08:59:12;;;;;;;;;;;;;;;-0.10;64.20;95492.31;5004826;28;19925;-74
2021/10/22 09:01:57;;;;;;;;;;;;;;;0.28;61.90;95477.28;5005293;28;19944;-75
2021/10/22 09:04:49;;;;;;;;;;;;;;;-0.15;62.84;95480.53;4997579;28;20379;-76
2021/10/22 09:07:18;;;;;;;;;;;;;;;0.40;63.92;95482.53;5003042;28;19924;-77
2021/10/22 09:09:46;;;;;;;;;;;;;;;-0.08;62.92;95492.22;5004037;28;20293;-77
2021/10/22 09:12:12;;;;;;;;;;;;;;;-0.04;63.06;95498.88;5003071;28;19926;-75
2021/10/22 09:14:38;;;;;;;;;;;;;;;-0.06;62.93;95491.16;5003249;28;19924;-77
2021/10/22 09:17:13;;;;;;;;;;;;;;;0.54;61.20;95500.66;4987130;28;20397;-76
2021/10/22 09:19:41;;;;;;;;;;;;;;;0.06;61.11;95507.72;4997819;28;19964;-78
2021/10/22 09:22:21;;;;;;;;;;;;;;;0.63;61.11;95516.63;4985866;28;20210;-77
2021/10/22 09:25:06;;;;;;;;;;;;;;;0.79;60.29;95529.38;4996310;28;20311;-76
2021/10/22 09:27:42;;;;;;;;;;;;;;;0.50;62.46;95517.56;5002516;28;19991;-75
2021/10/22 09:30:12;;;;;;;;;;;;;;;0.68;61.80;95509.25;5000838;28;20299;-77
2021/10/22 09:32:47;;;;;;;;;;;;;;;0.88;60.71;95507.69;5001861;28;19929;-75
2021/10/22 09:35:12;;;;;;;;;;;;;;;0.91;61.45;95502.22;5019043;28;19948;-77
2021/10/22 09:37:42;;;;;;;;;;;;;;;1.08;60.59;95513.16;5003257;28;20401;-76
2021/10/22 09:40:07;;;;;;;;;;;;;;;1.27;58.49;95504.69;4990711;28;20394;-75
2021/10/22 09:42:33;;;;;;;;;;;;;;;0.96;60.03;95531.53;5004452;28;19959;-75
2021/10/22 09:44:59;;;;;;;;;;;;;;;0.29;63.39;95531.38;4993525;28;20401;-71
2021/10/22 09:47:24;;;;;;;;;;;;;;;0.77;63.46;95512.94;5004372;28;19986;-74
2021/10/22 09:49:52;;;;;;;;;;;;;;;1.53;60.66;95504.38;5002862;28;20401;-74
2021/10/22 09:52:21;;;;;;;;;;;;;;;1.24;61.09;95510.16;4996191;28;20375;-73
2021/10/22 09:54:47;;;;;;;;;;;;;;;0.91;61.82;95524.97;5002531;28;19914;-75
2021/10/22 09:57:14;;;;;;;;;;;;;;;0.82;61.09;95521.31;5002315;28;19955;-75
2021/10/22 09:59:40;;;;;;;;;;;;;;;0.76;60.82;95512.13;5002204;28;20224;-75
2021/10/22 10:02:07;;;;;;;;;;;;;;;0.89;61.92;95540.81;5004126;28;19965;-73
2021/10/22 10:04:32;;;;;;;;;;;;;;;0.55;60.34;95502.31;5001278;28;19917;-74
2021/10/22 10:07:00;;;;;;;;;;;;;;;0.60;61.28;95507.22;4997145;28;19974;-74
2021/10/22 10:09:29;;;;;;;;;;;;;;;0.88;59.70;95538.34;4999377;28;20284;-75
2021/10/22 10:11:55;;;;;;;;;;;;;;;1.00;61.04;95507.69;4985422;28;19956;-75
2021/10/22 10:14:25;;;;;;;;;;;;;;;1.49;58.40;95516.91;5000831;28;20370;-75
2021/10/22 10:16:50;;;;;;;;;;;;;;;1.45;59.01;95525.13;5003544;28;20225;-75
2021/10/22 10:19:23;;;;;;;;;;;;;;;1.53;58.82;95525.38;5000576;28;20000;-74
2021/10/22 10:21:54;;;;;;;;;;;;;;;2.12;56.84;95527.69;5002061;28;19985;-74
2021/10/22 10:24:20;;;;;;;;;;;;;;;1.50;59.21;95528.25;5003282;28;20001;-74
2021/10/22 10:26:59;;;;;;;;;;;;;;;2.03;55.90;95510.88;5002732;28;19922;-75
2021/10/22 10:29:28;;;;;;;;;;;;;;;1.75;56.87;95523.66;5003286;28;20043;-74
2021/10/22 10:32:01;;;;;;;;;;;;;;;1.40;58.08;95543.06;5001500;28;19921;-73
2021/10/22 10:34:27;;;;;;;;;;;;;;;1.44;59.61;95526.09;5002665;28;20267;-75
2021/10/22 10:36:52;;;;;;;;;;;;;;;1.43;59.04;95513.94;5001467;28;20025;-74
2021/10/22 10:39:41;;;;;;;;;;;;;;;1.03;58.65;95541.53;5001677;28;20493;-75
2021/10/22 10:42:20;;;;;;;;;;;;;;;1.26;58.23;95528.41;5001550;28;20020;-74
2021/10/22 10:44:45;;;;;;;;;;;;;;;1.14;59.12;95510.06;5001625;28;20412;-74
2021/10/22 10:47:34;;;;;;;;;;;;;;;1.19;58.74;95514.97;5002870;28;19925;-74
2021/10/22 10:49:59;;;;;;;;;;;;;;;1.11;58.80;95518.16;5002595;28;19921;-74
2021/10/22 10:52:37;;;;;;;;;;;;;;;1.22;58.58;95514.69;4996399;28;20378;-75
2021/10/22 10:55:19;;;;;;;;;;;;;;;1.69;56.74;95511.03;5003784;28;19948;-74
2021/10/22 10:57:55;;;;;;;;;;;;;;;1.86;57.80;95513.13;5003643;28;20378;-75
2021/10/22 11:00:21;;;;;;;;;;;;;;;1.75;57.51;95514.00;5000116;28;19926;-75
2021/10/22 11:03:07;;;;;;;;;;;;;;;2.20;57.37;95511.28;4985507;28;20456;-75
2021/10/22 11:05:45;;;;;;;;;;;;;;;2.10;56.00;95505.94;5002672;28;20337;-75
2021/10/22 11:08:12;;;;;;;;;;;;;;;1.88;57.93;95510.38;5001636;28;19929;-76
2021/10/22 11:11:00;;;;;;;;;;;;;;;1.93;56.70;95520.47;5001602;28;20382;-76
2021/10/22 11:13:44;;;;;;;;;;;;;;;1.87;58.37;95506.91;5001187;28;19922;-76
2021/10/22 11:16:10;;;;;;;;;;;;;;;2.07;58.04;95506.19;5002552;28;19921;-75
2021/10/22 11:18:36;;;;;;;;;;;;;;;2.24;56.93;95504.78;5001240;28;19993;-75
2021/10/22 11:21:02;;;;;;;;;;;;;;;1.96;57.18;95518.44;5001219;28;20364;-75
2021/10/22 11:23:27;;;;;;;;;;;;;;;2.31;56.98;95495.44;5002210;28;19989;-74
2021/10/22 11:25:58;;;;;;;;;;;;;;;1.85;57.62;95503.59;5000943;28;20401;-74
2021/10/22 11:28:28;;;;;;;;;;;;;;;1.94;58.42;95509.03;4991014;28;19953;-76
2021/10/22 11:30:54;;;;;;;;;;;;;;;2.01;56.79;95502.31;4995002;28;20150;-75
2021/10/22 11:33:20;;;;;;;;;;;;;;;2.13;56.68;95509.16;4999987;28;19997;-75
2021/10/22 11:35:45;;;;;;;;;;;;;;;1.95;57.38;95518.56;5000856;28;19926;-76
2021/10/22 11:38:10;;;;;;;;;;;;;;;1.85;57.00;95502.75;5000798;28;19917;-75
2021/10/22 11:40:35;;;;;;;;;;;;;;;1.86;57.15;95499.16;5002300;28;19953;-75
2021/10/22 11:43:07;;;;;;;;;;;;;;;2.00;56.13;95506.72;5002498;28;19929;-75
2021/10/22 11:45:32;;;;;;;;;;;;;;;2.12;56.44;95504.84;5000916;28;20008;-76
2021/10/22 11:47:58;;;;;;;;;;;;;;;2.70;55.59;95499.25;5001985;28;20361;-76
2021/10/22 11:50:28;;;;;;;;;;;;;;;2.90;54.95;95506.25;5001079;28;19967;-76
2021/10/22 11:53:23;;;;;;;;;;;;;;;2.18;54.65;95508.78;5000512;28;19921;-75
2021/10/22 11:55:51;;;;;;;;;;;;;;;2.42;55.38;95517.38;4999278;28;20404;-75
2021/10/22 11:58:18;;;;;;;;;;;;;;;2.90;54.17;95508.06;4995438;28;20048;-75
2021/10/22 12:00:55;;;;;;;;;;;;;;;2.35;52.45;95504.72;5000450;28;19983;-75
2021/10/22 12:03:29;;;;;;;;;;;;;;;2.00;55.43;95506.72;5003844;28;20398;-75
2021/10/22 12:05:58;;;;;;;;;;;;;;;1.71;55.03;95535.38;5006476;28;19947;-75
2021/10/22 12:08:24;;;;;;;;;;;;;;;1.78;56.11;95509.44;5000824;28;19922;-76
2021/10/22 12:10:50;;;;;;;;;;;;;;;1.76;55.82;95509.56;5000602;28;19996;-75
2021/10/22 12:13:25;;;;;;;;;;;;;;;1.80;56.81;95512.78;5003888;28;19932;-75
2021/10/22 12:15:50;;;;;;;;;;;;;;;1.96;54.87;95578.84;5003418;28;20578;-76
2021/10/22 12:18:15;;;;;;;;;;;;;;;2.07;54.21;95514.94;5004683;28;19921;-75
2021/10/22 12:20:40;;;;;;;;;;;;;;;1.74;56.47;95507.06;5003970;28;20467;-75
2021/10/22 12:23:06;;;;;;;;;;;;;;;1.65;56.15;95513.06;4993626;28;19921;-75
2021/10/22 12:25:32;;;;;;;;;;;;;;;2.00;55.64;95500.63;5000899;28;19956;-76
2021/10/22 12:28:01;;;;;;;;;;;;;;;1.80;55.66;95529.34;5002515;28;19933;-75
2021/10/22 12:30:30;;;;;;;;;;;;;;;1.29;55.53;95528.19;5004223;28;20033;-76
2021/10/22 12:32:56;;;;;;;;;;;;;;;1.49;56.34;95523.94;5005869;28;19921;-76
2021/10/22 12:35:31;;;;;;;;;;;;;;;1.59;55.84;95522.28;5003432;28;20103;-76
2021/10/22 12:37:56;;;;;;;;;;;;;;;1.86;55.10;95497.38;5005858;28;19966;-75
2021/10/22 12:40:40;;;;;;;;;;;;;;;2.39;53.72;95500.06;5005016;28;20444;-77
2021/10/22 12:43:13;;;;;;;;;;;;;;;2.63;52.81;95491.88;5005015;28;19925;-75
2021/10/22 12:45:51;;;;;;;;;;;;;;;2.20;52.89;95533.13;5005521;28;19931;-75
2021/10/22 12:48:17;;;;;;;;;;;;;;;2.92;52.91;95500.84;5005344;28;20470;-76
2021/10/22 12:50:43;;;;;;;;;;;;;;;2.76;52.72;95515.31;5004114;28;19968;-75
2021/10/22 12:53:13;;;;;;;;;;;;;;;2.65;52.21;95505.72;5003817;28;19963;-75
2021/10/22 12:55:39;;;;;;;;;;;;;;;2.58;53.00;95503.78;5003693;28;19994;-75
2021/10/22 12:58:21;;;;;;;;;;;;;;;2.08;52.59;95524.47;5003755;28;20442;-75
2021/10/22 13:01:03;;;;;;;;;;;;;;;1.61;54.24;95512.47;5004918;28;20878;-75